Observations for Trim Market St
| Time | AQI | Temp °C | Hum % | Pres Pa | CO μg/m³ | H₂S μg/m³ | NO μg/m³ | NO₂ μg/m³ | O₃ μg/m³ | SO₂ μg/m³ | PM1 μg/m³ | PM2.5 μg/m³ | PM10 μg/m³ |
|---|---|---|---|---|---|---|---|---|---|---|---|---|---|
| Tuesday 25 August 2026 | |||||||||||||
| 11:28 | 2 | 29.4 | 38 | 65,923 | 1.33 | 0 | 1.59 | 23.67 | 74.65 | 0 | 1.43 | 5.12 | 5.63 |
| 11:27 | 2 | 29.5 | 37 | 65,888 | 0.08 | 0 | 1.64 | 14.65 | 70.51 | 0 | 1.43 | 5.12 | 5.88 |
| 11:26 | 2 | 29.5 | 38 | 65,894 | 0 | 0 | 1.66 | 24.63 | 71.6 | 0 | 2.14 | 5.12 | 5.63 |
| 11:25 | 2 | 29.4 | 38 | 65,904 | 0 | 0 | 1.54 | 19.18 | 70.98 | 0 | 2.85 | 5.11 | 5.62 |
| 11:19 | 2 | 28.8 | 38 | 65,900 | 0 | 0 | 1.52 | 10.26 | 74.98 | 0 | 0.71 | 4.02 | 4.26 |
| 11:18 | 2 | 28.6 | 38 | 65,894 | 0 | 0 | 1.52 | 13.07 | 72.61 | 0 | 2.14 | 5.08 | 5.08 |
| 11:16 | 2 | 28.4 | 39 | 65,870 | 0 | 0 | 1.54 | 14.75 | 69.79 | 0 | 2.14 | 5.05 | 5.9 |
| 11:12 | 2 | 28.1 | 40 | 65,807 | 0 | 0 | 1.44 | 11.62 | 73.32 | 0 | 1.43 | 5.02 | 5.1 |
| 11:07 | 2 | 27.7 | 40 | 65,736 | 0 | 0 | 1.33 | 9.93 | 74.14 | 0 | 1.43 | 5 | 5.91 |
| 11:06 | 2 | 27.6 | 40 | 65,772 | 0 | 0 | 1.33 | 7.49 | 73.55 | 0 | 0.71 | 2.89 | 3.17 |
| 11:05 | 2 | 27.5 | 40 | 65,760 | 0 | 0 | 1.3 | 7.47 | 73.32 | 0 | 1.43 | 4.48 | 5.11 |
| 11:03 | 2 | 27.5 | 40 | 65,768 | 0 | 0 | 1.25 | 7.06 | 72.32 | 0 | 0.71 | 3.95 | 4.34 |
| 11:02 | 2 | 27.6 | 40 | 65,784 | 0 | 0 | 1.32 | 7.8 | 72.94 | 0 | 0.71 | 3.95 | 4.35 |
| 11:01 | 2 | 27.6 | 40 | 65,780 | 0 | 0 | 1.34 | 10.24 | 74.04 | 0 | 0.71 | 4.49 | 5.1 |
| 11:00 | 2 | 27.7 | 39 | 65,799 | 0 | 0 | 1.37 | 6.14 | 71.94 | 0 | 0.71 | 3.97 | 4.36 |
| 10:59 | 2 | 27.7 | 39 | 65,799 | 0 | 0 | 1.43 | 6.05 | 71.7 | 0 | 0.71 | 4.5 | 5.1 |
| 10:58 | 2 | 27.8 | 39 | 65,774 | 0 | 0 | 1.52 | 7.13 | 72.76 | 0 | 0.71 | 3.97 | 4.29 |
| 10:57 | 2 | 27.9 | 40 | 65,793 | 0 | 0 | 1.42 | 5.38 | 70.95 | 0 | 1.43 | 4.49 | 5.1 |
| 10:51 | 2 | 27.8 | 41 | 65,723 | 0.08 | 0 | 1.61 | 5.62 | 68.96 | 0 | 0 | 3.35 | 3.54 |
| 10:49 | 2 | 27.7 | 42 | 65,647 | 0.18 | 0 | 1.63 | 10.63 | 58.1 | 0 | 0.71 | 3.32 | 3.56 |